Historyczne dane pomiarowe

Dodano dane terminowe – wersja testowa.

Dane z okresu 1951-2019

Wersja bazy: 1.34 [2019-03-16, lista zmian], aktualizacja planowana na 2019-04-15

Dane meteo z obszaru Polski uzyskane na podstawie danych udostępnionych przez Instytut Meteorologii i Gospodarki Wodnej – Państwowy Instytut Badawczy.

 

Wybierz Datę:    

       

TemperaturaWilgotnośćWiatrCiśnienieOpadyŚniegCzas trwania zjawisk
 Stacja t tx tn tng RH VA  wxwx mslp ppp RRR   cm mm wxwxwxwxwxwxwx
2019-08-31 21.5 29.3 14.6 12.6 69.1 16.8- 1.6--1021.0 995.0 0.0 0.0 0.0- 0.0--------
2019-08-30 21.0 28.1 16.0 13.6 77.3 18.8- 2.3--1021.0 995.0 0.0 0.0 0.0- 0.0--------
2019-08-29 23.1 31.7 14.6 11.5 64.1 17.2- 1.9--1018.9 993.0 0.0 0.0 0.0- 0.0--------
2019-08-28 22.4 30.9 14.5 9.9 59.6 15.1- 2.4--1021.1 995.2 0.0 0.0 0.0- 0.0--------
2019-08-27 22.0 30.0 14.4 11.9 62.0 15.5- 2.9--1022.8 996.8 0.0 0.0 0.0- 0.0--------
2019-08-26 21.6 29.3 13.8 10.7 62.6 15.7- 3.5--1023.5 997.4 0.0 0.0 0.0- 0.0--------
2019-08-25 19.9 27.6 12.1 8.4 65.0 14.5- 3.5--1024.6 998.4 0.0 0.0 0.0- 0.0--------
2019-08-24 18.1 24.9 10.2 7.4 68.9 13.6- 2.6--1026.4 999.9 0.0 0.0 0.0- 0.0--------
2019-08-23 18.0 22.8 15.0 14.1 73.8 15.0- 2.9--1028.21001.7 0.0 0.0 0.0- 0.0--------
2019-08-22 17.8 22.3 12.9 11.7 71.6 14.2- 3.6--1028.71002.2 0.0 0.0 0.0- 0.0--------
2019-08-21 19.9 26.9 16.1 15.5 80.0 18.6----1022.6 996.4 0.0 0.0 0.0- 0.0--------
2019-08-20 22.7 27.6 18.2 16.4 73.8 20.0----1020.5 994.6 0.0 0.0 0.0- 0.0--------
2019-08-19 24.7 31.6 16.7 14.1 60.3 18.1----1015.4 989.8 0.0 0.0 0.0- 0.0--------
2019-08-18 20.7 27.2 11.9 9.7 62.4 14.9----1013.7 987.8 0.0 0.0 0.0- 0.0--------
2019-08-17 17.1 24.6 8.7 6.5 70.0 12.9----1016.4 990.1 0.0 0.0 0.0- 0.0--------
2019-08-16 16.0 22.9 9.2 7.9 72.6 12.6----1016.6 990.3 0.0 0.0 0.0- 0.0--------
2019-08-15 15.1 21.3 8.2 6.9 76.9 12.7----1017.1 990.7 0.0 0.0 0.0- 0.0--------
2019-08-14 15.0 18.3 13.6 13.2 95.3 16.3----1014.5 988.1 35.9 35.8 0.1- 0.0--------
2019-08-13 19.0 24.0 18.2 18.1 90.0 19.8----1014.2 988.2 10.9 0.9 10.0- 0.0--------
2019-08-12 22.7 31.3 13.5 11.9 78.1 21.4----1014.2 988.5 3.5 2.2 1.3- 0.0--------
2019-08-11 21.3 27.1 17.9 17.7 72.1 17.6----1017.3 991.4 0.0 0.0 0.0- 0.0--------
2019-08-10 19.9 26.8 10.5 9.1 70.6 16.0----1015.0 989.0 10.4 0.0 10.4- 0.0--------
2019-08-09 20.3 27.0 14.1 11.2 61.8 13.9----1013.2 987.2 0.2 0.2 0.0- 0.0--------
2019-08-08 19.4 25.6 16.5 14.7 80.0 17.7----1009.5 983.6 1.1 1.1 0.0- 0.0--------
2019-08-07 21.4 30.4 18.0 16.0 79.4 19.4- 2.5--1009.4 983.7 17.2 7.4 9.8- 0.0--------
2019-08-06 20.1 28.3 12.6 9.4 71.0 15.9- 2.4--1012.0 986.1 0.2 0.0 0.2- 0.0--------
2019-08-05 17.1 23.4 10.8 8.1 72.9 13.7- 2.1--1013.1 986.9 0.0 0.0 0.0- 0.0--------
2019-08-04 15.8 23.7 9.0 6.6 74.0 12.8- 3.6--1012.1 985.9 0.4 0.4 0.0- 0.0--------
2019-08-03 16.7 22.8 11.9 9.6 75.1 13.8- 2.5--1010.6 984.4 0.1 0.1 0.0- 0.0--------
2019-08-02 17.6 24.3 12.8 11.2 74.4 14.6- 2.9--1012.5 986.4 0.0 0.0 0.0- 0.0--------
2019-08-01 19.5 24.8 15.4 12.9 65.0 14.3- 1.5--1014.0 988.0 0.0 0.0 0.0- 0.0--------
2019-07-31 20.8 25.7 16.8 15.2 74.1 17.6- 2.6--1011.6 985.8 0.0 0.0 0.0- 0.0--------
2019-07-30 22.5 30.8 17.7 17.3 78.8 20.5- 2.6--1006.5 980.9 5.3 5.1 0.2- 0.0--------
2019-07-29 22.5 31.1 16.7 15.2 78.9 21.0- 1.9--1005.1 979.5 4.6 1.8 2.8- 0.0--------
2019-07-28 24.9 31.5 19.9 18.9 64.9 19.8----1005.5 980.2 0.0 0.0 0.0- 0.0--------
2019-07-27 21.5 27.7 14.1 11.9 69.5 17.3- 3.5--1008.6 982.9 0.0 0.0 0.0- 0.0--------
2019-07-26 21.0 26.5 14.9 13.3 65.0 15.7- 2.6--1011.5 985.7 0.0 0.0 0.0- 0.0--------
2019-07-25 21.5 28.0 12.8 10.3 64.5 15.5- 2.4--1017.4 991.5 0.0 0.0 0.0- 0.0--------
2019-07-24 18.9 24.7 11.7 9.6 70.4 14.9- 3.4--1017.9 991.8 0.0 0.0 0.0- 0.0--------
2019-07-23 19.1 22.6 15.3 14.3 67.4 14.6- 3.1--1018.4 992.2 0.0 0.0 0.0- 0.0--------
2019-07-22 20.6 26.0 17.0 16.7 72.9 17.1- 4.0--1019.8 993.8 0.0 0.0 0.0- 0.0--------
2019-07-21 21.0 29.9 13.8 11.4 76.0 17.9- 2.1--1017.6 991.7 15.9 14.4 1.5- 0.0--------
2019-07-20 20.1 27.6 14.5 12.4 71.0 16.2- 1.5--1017.1 991.1 1.9 0.2 1.7- 0.0--------
2019-07-19 19.0 27.3 7.9 5.8 60.0 11.9- 2.0--1015.1 989.0 0.1 0.0 0.1- 0.0--------
2019-07-18 16.2 23.0 9.8 7.5 70.1 12.3- 3.3--1013.2 987.0 0.0 0.0 0.0- 0.0--------
2019-07-17 15.2 20.1 11.9 11.0 76.1 13.1- 4.3--1010.4 984.2 9.7 9.7 0.0- 0.0--------
2019-07-16 16.5 24.5 8.3 6.9 62.6 11.0- 4.1--1011.2 985.0 0.1 0.0 0.1- 0.0--------
2019-07-15 15.7 22.4 7.8 6.1 70.4 11.9- 2.1--1012.4 986.1 0.0 0.0 0.0- 0.0--------
2019-07-14 15.3 21.6 12.2 11.7 85.5 14.6- 2.1--1010.8 984.5 6.3 5.4 0.9- 0.0--------
2019-07-13 15.6 24.3 9.7 6.8 75.9 13.0- 2.0--1009.8 983.5 3.8 1.7 2.1- 0.0--------
2019-07-12 16.9 23.1 9.8 6.7 60.5 11.0- 2.9--1010.8 984.7 1.2 0.0 1.2- 0.0--------
2019-07-11 14.6 19.8 10.3 9.6 74.9 12.1- 4.3--1010.8 984.5 0.0 0.0 0.0- 0.0--------
2019-07-10 14.3 18.0 12.2 11.6 79.0 12.8- 5.6--1010.7 984.3 0.4 0.0 0.4- 0.0--------
2019-07-09 14.0 20.7 7.6 6.8 67.5 10.4- 5.9--1011.9 985.5 0.7 0.6 0.1- 0.0--------
2019-07-08 14.0 19.2 8.9 8.4 67.3 10.6- 5.1--1011.2 984.8 0.8 0.8 0.0- 0.0--------
2019-07-07 17.9 22.1 15.6 14.3 72.3 14.7- 3.9--1005.9 980.0 0.0 0.0 0.0- 0.0--------
2019-07-06 17.7 23.2 9.4 8.3 68.6 13.5- 3.6--1010.1 984.0 0.5 0.0 0.5- 0.0--------
2019-07-05 16.4 23.3 8.2 5.9 58.5 10.4- 4.6--1013.3 987.0 0.0 0.0 0.0- 0.0--------
2019-07-04 14.4 22.2 6.6 3.6 60.8 9.2- 3.5--1020.1 993.5 0.0 0.0 0.0- 0.0--------
2019-07-03 15.4 21.9 9.5 7.9 61.5 10.1- 3.8--1018.4 992.0 0.0 0.0 0.0- 0.0--------
64.8 ms

 

Źródłem pochodzenia danych jest Instytut Meteorologii i Gospodarki Wodnej – Państwowy Instytut Badawczy. Dane Instytutu Meteorologii i Gospodarki Wodnej – Państwowego Instytutu Badawczego zostały przetworzone.

Dane źródłowe można odnaleźć na stronie https://dane.imgw.pl